Time;durP1;ratioP1;P1;durP2;ratioP2;P2;SDS_P1;SDS_P2;PMS_P1;PMS_P2;Temp;Humidity;BMP_temperature;BMP_pressure;BME280_temperature;BME280_humidity;BME280_pressure;Samples;Min_cycle;Max_cycle;Signal;HPM_P1;HPM_P2
2023/06/06 00:01:50;;;;;;;16.25;14.65;;;22.10;1.00;;;;;;5065848;28;20029;-62
2023/06/06 00:04:16;;;;;;;17.77;15.98;;;22.10;1.00;;;;;;5068140;28;20028;-62
2023/06/06 00:06:44;;;;;;;17.48;15.27;;;22.10;1.00;;;;;;5064931;28;20044;-61
2023/06/06 00:09:10;;;;;;;18.88;17.02;;;22.10;1.00;;;;;;5073727;28;20070;-61
2023/06/06 00:11:36;;;;;;;20.90;18.50;;;22.10;1.00;;;;;;5063841;28;20025;-62
2023/06/06 00:14:02;;;;;;;19.42;16.65;;;22.10;1.00;;;;;;5072036;28;20051;-62
2023/06/06 00:16:28;;;;;;;19.90;17.85;;;22.10;1.00;;;;;;5052987;28;20048;-62
2023/06/06 00:18:55;;;;;;;17.60;15.82;;;22.10;1.00;;;;;;5058761;28;20083;-62
2023/06/06 00:21:22;;;;;;;17.60;15.70;;;22.10;1.00;;;;;;5035269;28;20020;-62
2023/06/06 00:23:49;;;;;;;19.27;17.35;;;22.00;1.00;;;;;;5041152;28;20031;-62
2023/06/06 00:26:14;;;;;;;18.38;16.45;;;22.00;1.00;;;;;;5064936;28;20029;-62
2023/06/06 00:28:40;;;;;;;19.67;15.93;;;22.00;1.00;;;;;;5044265;28;20377;-62
2023/06/06 00:31:06;;;;;;;18.77;16.17;;;22.00;1.00;;;;;;5064308;28;20531;-62
2023/06/06 00:33:32;;;;;;;19.38;17.35;;;21.90;1.00;;;;;;5044470;28;20394;-62
2023/06/06 00:35:57;;;;;;;18.67;16.25;;;21.90;1.00;;;;;;5065755;28;20044;-62
2023/06/06 00:38:23;;;;;;;19.23;17.02;;;21.90;1.00;;;;;;5078721;28;20035;-62
2023/06/06 00:40:49;;;;;;;18.45;16.60;;;21.90;1.00;;;;;;5044864;28;20017;-63
2023/06/06 00:43:15;;;;;;;18.50;16.38;;;21.90;1.00;;;;;;5057264;28;20418;-62
2023/06/06 00:45:40;;;;;;;18.17;16.27;;;21.90;1.00;;;;;;5071651;28;20024;-62
2023/06/06 00:48:07;;;;;;;18.25;16.27;;;21.90;1.00;;;;;;5046892;28;20029;-62
2023/06/06 00:50:34;;;;;;;19.50;16.90;;;21.90;1.00;;;;;;5053654;28;20029;-62
2023/06/06 00:53:01;;;;;;;21.50;17.00;;;21.90;1.00;;;;;;5052645;28;20025;-62
2023/06/06 00:55:28;;;;;;;19.92;17.80;;;21.80;1.00;;;;;;5052920;28;20036;-62
2023/06/06 00:57:54;;;;;;;19.25;17.17;;;21.80;1.00;;;;;;5070710;28;20032;-62
2023/06/06 01:00:21;;;;;;;22.30;20.05;;;21.80;1.00;;;;;;5063393;28;20088;-62
2023/06/06 01:02:48;;;;;;;23.23;20.83;;;21.80;1.00;;;;;;5060699;28;20131;-62
2023/06/06 01:05:16;;;;;;;23.25;19.63;;;21.80;1.00;;;;;;5063440;28;20028;-62
2023/06/06 01:07:47;;;;;;;20.88;18.50;;;21.80;1.00;;;;;;5049079;28;20028;-62
2023/06/06 01:10:13;;;;;;;22.55;19.70;;;21.80;1.00;;;;;;5062030;28;20028;-62
2023/06/06 01:13:01;;;;;;;24.75;22.15;;;21.70;1.00;;;;;;5063557;28;20529;-62
2023/06/06 01:15:45;;;;;;;24.70;21.90;;;21.70;1.00;;;;;;5055619;28;20040;-62
2023/06/06 01:18:12;;;;;;;24.17;21.65;;;21.70;1.00;;;;;;5066586;28;20048;-62
2023/06/06 01:20:42;;;;;;;26.25;23.42;;;21.60;1.00;;;;;;5061107;28;20541;-62
2023/06/06 01:23:11;;;;;;;30.83;23.60;;;21.70;1.00;;;;;;5067965;28;20023;-62
2023/06/06 01:25:40;;;;;;;26.58;23.73;;;21.60;1.00;;;;;;5064489;28;20033;-62
2023/06/06 01:28:12;;;;;;;26.30;23.58;;;21.60;1.00;;;;;;5067196;28;20017;-62
2023/06/06 01:30:40;;;;;;;29.10;24.88;;;21.60;1.00;;;;;;5046204;28;20028;-62
2023/06/06 01:33:32;;;;;;;25.60;22.48;;;21.60;1.00;;;;;;5074489;28;20060;-62
2023/06/06 01:36:06;;;;;;;27.45;24.23;;;21.60;1.00;;;;;;5056685;28;20036;-62
2023/06/06 01:38:42;;;;;;;26.10;23.30;;;21.60;1.00;;;;;;5064374;28;20025;-62
2023/06/06 01:41:13;;;;;;;27.52;24.65;;;21.60;1.00;;;;;;5067634;28;20032;-63
2023/06/06 01:43:40;;;;;;;28.30;24.77;;;21.50;1.00;;;;;;5054410;28;20086;-62
2023/06/06 01:46:07;;;;;;;29.80;26.38;;;21.50;1.00;;;;;;5078309;28;20029;-62
2023/06/06 01:48:34;;;;;;;28.13;25.08;;;21.40;1.00;;;;;;5079574;28;20078;-62
2023/06/06 01:51:00;;;;;;;30.15;26.45;;;21.50;1.00;;;;;;5059534;28;20563;-62
2023/06/06 01:53:26;;;;;;;26.70;23.35;;;21.50;1.00;;;;;;5062106;28;20148;-62
2023/06/06 01:55:51;;;;;;;27.58;24.50;;;21.50;1.00;;;;;;5058616;28;20040;-62
2023/06/06 01:58:18;;;;;;;29.85;24.77;;;21.40;1.00;;;;;;5066556;28;20047;-62
2023/06/06 02:00:44;;;;;;;29.88;25.05;;;21.40;1.00;;;;;;5057132;28;20557;-62
2023/06/06 02:03:11;;;;;;;30.33;25.77;;;21.40;1.00;;;;;;5061995;28;20021;-62
2023/06/06 02:05:38;;;;;;;29.48;26.17;;;21.40;1.00;;;;;;5067343;28;20036;-62
2023/06/06 02:08:03;;;;;;;32.10;27.17;;;21.30;1.00;;;;;;5070775;28;20021;-62
2023/06/06 02:10:29;;;;;;;32.90;28.55;;;21.30;1.00;;;;;;5052012;28;20032;-62
2023/06/06 02:12:54;;;;;;;30.70;26.40;;;21.30;1.00;;;;;;5048781;28;20076;-62
2023/06/06 02:15:21;;;;;;;32.00;27.13;;;21.30;1.00;;;;;;5066113;28;20041;-62
2023/06/06 02:17:48;;;;;;;31.85;28.35;;;21.30;1.00;;;;;;5065177;28;20025;-62
2023/06/06 02:20:14;;;;;;;30.67;27.40;;;21.30;1.00;;;;;;5065446;28;20028;-62
2023/06/06 02:22:40;;;;;;;32.70;28.73;;;21.20;1.00;;;;;;5061918;28;20402;-62
2023/06/06 02:25:06;;;;;;;32.22;28.20;;;21.20;1.00;;;;;;5066069;28;20029;-62
2023/06/06 02:27:35;;;;;;;32.05;28.75;;;21.20;1.00;;;;;;5061549;28;20036;-62
2023/06/06 02:30:03;;;;;;;33.35;27.73;;;21.20;1.00;;;;;;5068870;28;20024;-62
2023/06/06 02:32:30;;;;;;;35.00;29.27;;;21.20;1.00;;;;;;5070456;28;20490;-62
2023/06/06 02:34:57;;;;;;;31.30;27.95;;;21.10;1.00;;;;;;5049641;28;20029;-62
2023/06/06 02:37:23;;;;;;;33.13;28.35;;;21.10;1.00;;;;;;5069558;28;20047;-62
2023/06/06 02:39:49;;;;;;;32.55;28.88;;;21.10;1.00;;;;;;5053396;28;20468;-62
2023/06/06 02:42:14;;;;;;;34.67;29.60;;;21.10;1.00;;;;;;5068796;28;20032;-63
2023/06/06 02:44:40;;;;;;;32.50;29.02;;;21.10;1.00;;;;;;5073297;28;20371;-62
2023/06/06 02:47:06;;;;;;;30.85;27.55;;;21.10;1.00;;;;;;5065809;28;20027;-62
2023/06/06 02:49:32;;;;;;;31.90;28.42;;;21.10;1.00;;;;;;5061932;28;20024;-62
2023/06/06 02:51:58;;;;;;;30.00;26.58;;;21.10;1.00;;;;;;5069332;28;20522;-62
2023/06/06 02:54:23;;;;;;;30.23;27.00;;;21.10;1.00;;;;;;5066170;28;20024;-62
2023/06/06 02:56:49;;;;;;;30.88;27.08;;;21.10;1.00;;;;;;5056677;28;20056;-63
2023/06/06 02:59:15;;;;;;;31.85;26.90;;;21.00;1.00;;;;;;5070215;28;20024;-63
2023/06/06 03:01:44;;;;;;;29.90;26.67;;;21.00;1.00;;;;;;5069347;28;20120;-63
2023/06/06 03:04:14;;;;;;;31.23;27.02;;;21.00;1.00;;;;;;5064925;28;20352;-63
2023/06/06 03:06:40;;;;;;;30.08;26.88;;;21.00;1.00;;;;;;5066857;28;20051;-63
2023/06/06 03:09:06;;;;;;;32.33;26.38;;;21.00;1.00;;;;;;5067335;28;20086;-62
2023/06/06 03:11:32;;;;;;;29.73;25.67;;;21.00;1.00;;;;;;5068830;28;20027;-62
2023/06/06 03:13:58;;;;;;;34.58;25.90;;;21.00;1.00;;;;;;5064039;28;20029;-62
2023/06/06 03:16:26;;;;;;;30.30;27.00;;;21.00;1.00;;;;;;5061305;28;20048;-62
2023/06/06 03:18:52;;;;;;;31.85;26.45;;;21.00;1.00;;;;;;5064247;28;20064;-63
2023/06/06 03:21:19;;;;;;;30.30;25.08;;;21.00;1.00;;;;;;5072259;28;20041;-63
2023/06/06 03:23:44;;;;;;;29.95;26.67;;;21.00;1.00;;;;;;5063431;28;20492;-62
2023/06/06 03:26:10;;;;;;;32.85;27.60;;;21.00;1.00;;;;;;5058439;28;20029;-62
2023/06/06 03:28:36;;;;;;;31.63;26.55;;;20.90;1.00;;;;;;5059256;28;20028;-62
2023/06/06 03:31:07;;;;;;;31.00;26.95;;;20.90;1.00;;;;;;5067037;28;20039;-62
2023/06/06 03:33:33;;;;;;;33.05;27.48;;;20.90;1.00;;;;;;5066734;28;20032;-62
2023/06/06 03:35:59;;;;;;;31.80;26.42;;;20.90;1.00;;;;;;5062179;28;20036;-62
2023/06/06 03:38:25;;;;;;;32.22;25.85;;;20.80;1.00;;;;;;5067438;28;20017;-62
2023/06/06 03:40:51;;;;;;;32.88;26.60;;;20.80;1.00;;;;;;5067117;28;20037;-62
2023/06/06 03:43:16;;;;;;;29.98;26.67;;;20.90;1.00;;;;;;5062758;28;20120;-62
2023/06/06 03:45:42;;;;;;;28.27;24.65;;;20.90;1.00;;;;;;5068704;28;20078;-62
2023/06/06 03:48:09;;;;;;;31.98;26.17;;;20.80;1.00;;;;;;5058195;28;20049;-62
2023/06/06 03:50:35;;;;;;;29.70;26.38;;;20.80;1.00;;;;;;5076110;28;20052;-62
2023/06/06 03:53:01;;;;;;;28.33;25.27;;;20.80;1.00;;;;;;5062643;28;20017;-63
2023/06/06 03:55:33;;;;;;;29.75;25.30;;;20.70;1.00;;;;;;5079417;28;20458;-63
2023/06/06 03:57:58;;;;;;;31.95;25.58;;;20.70;1.00;;;;;;5067836;28;20024;-63
2023/06/06 04:00:24;;;;;;;29.70;24.70;;;20.70;1.00;;;;;;5063559;28;20378;-63
2023/06/06 04:02:51;;;;;;;30.60;25.90;;;20.70;1.00;;;;;;5064686;28;21390;-63
2023/06/06 04:05:17;;;;;;;30.45;26.23;;;20.70;1.00;;;;;;5062474;28;20107;-62
2023/06/06 04:07:43;;;;;;;30.27;25.60;;;20.80;1.00;;;;;;5067002;28;20364;-62
2023/06/06 04:10:09;;;;;;;29.25;26.05;;;20.70;1.00;;;;;;5052079;28;20489;-62
2023/06/06 04:12:36;;;;;;;30.88;26.17;;;20.70;1.00;;;;;;5065021;28;20044;-62
2023/06/06 04:15:02;;;;;;;32.00;26.92;;;20.80;1.00;;;;;;5065537;28;20047;-62
2023/06/06 04:17:28;;;;;;;30.27;25.55;;;20.80;1.00;;;;;;5050819;28;20063;-62
2023/06/06 04:20:05;;;;;;;32.28;27.33;;;20.80;1.00;;;;;;5060438;28;20016;-62
2023/06/06 04:22:41;;;;;;;29.05;25.58;;;20.80;1.00;;;;;;5055377;28;20067;-62
2023/06/06 04:25:07;;;;;;;31.55;27.33;;;20.80;1.00;;;;;;5067514;28;20090;-62
2023/06/06 04:27:32;;;;;;;33.63;27.38;;;20.70;1.00;;;;;;5064544;28;20493;-62
2023/06/06 04:29:58;;;;;;;30.33;27.05;;;20.80;1.00;;;;;;5067233;28;20028;-62
2023/06/06 04:32:24;;;;;;;31.00;27.38;;;20.80;1.00;;;;;;5068149;28;20028;-62
2023/06/06 04:34:51;;;;;;;33.83;30.13;;;20.80;1.00;;;;;;5064900;28;20078;-63
2023/06/06 04:37:20;;;;;;;31.00;27.65;;;20.70;1.00;;;;;;5060548;28;20040;-63
2023/06/06 04:39:52;;;;;;;35.33;28.10;;;20.80;1.00;;;;;;5063911;28;20020;-63
2023/06/06 04:42:19;;;;;;;32.53;27.95;;;20.80;1.00;;;;;;5065066;28;20029;-63
2023/06/06 04:44:46;;;;;;;31.80;27.92;;;20.80;1.00;;;;;;5065803;28;20542;-63
2023/06/06 04:47:12;;;;;;;31.77;27.90;;;20.80;1.00;;;;;;5062475;28;20043;-63
2023/06/06 04:49:40;;;;;;;31.83;26.85;;;20.80;1.00;;;;;;5064341;28;20028;-63
2023/06/06 04:52:08;;;;;;;32.75;28.70;;;20.90;1.00;;;;;;5062050;28;20028;-63
2023/06/06 04:54:37;;;;;;;32.03;27.63;;;20.90;1.00;;;;;;5063968;28;20042;-63
2023/06/06 04:57:03;;;;;;;31.55;28.13;;;20.90;1.00;;;;;;5059946;28;20032;-62
2023/06/06 04:59:29;;;;;;;32.95;28.95;;;20.90;1.00;;;;;;5064764;28;20532;-62
2023/06/06 05:01:58;;;;;;;31.05;26.65;;;20.90;1.00;;;;;;5059595;28;20374;-62
2023/06/06 05:04:24;;;;;;;33.72;28.80;;;20.90;1.00;;;;;;5045111;28;20071;-62
2023/06/06 05:06:50;;;;;;;33.97;29.35;;;20.90;1.00;;;;;;5061508;28;20078;-62
2023/06/06 05:09:17;;;;;;;33.92;27.98;;;20.90;1.00;;;;;;5063141;28;20036;-63
2023/06/06 05:11:48;;;;;;;31.27;27.60;;;20.90;1.00;;;;;;5060924;28;20436;-62
2023/06/06 05:14:13;;;;;;;29.95;26.77;;;20.90;1.00;;;;;;5060603;28;20029;-63
2023/06/06 05:16:39;;;;;;;33.80;27.83;;;20.90;1.00;;;;;;5063997;28;20033;-62
2023/06/06 05:19:05;;;;;;;30.40;27.20;;;21.00;1.00;;;;;;5067606;28;20025;-62
2023/06/06 05:21:33;;;;;;;31.20;26.63;;;21.00;1.00;;;;;;5061424;28;20557;-62
2023/06/06 05:23:58;;;;;;;31.27;27.38;;;21.00;1.00;;;;;;5063543;28;20105;-62
2023/06/06 05:26:25;;;;;;;29.98;26.88;;;21.00;1.00;;;;;;5058651;28;20033;-63
2023/06/06 05:28:51;;;;;;;28.23;25.23;;;21.00;1.00;;;;;;5064090;28;20028;-62
2023/06/06 05:31:20;;;;;;;29.35;26.33;;;21.10;1.00;;;;;;5066199;28;20029;-63
2023/06/06 05:33:46;;;;;;;28.20;25.15;;;21.10;1.00;;;;;;5064859;28;20021;-63
2023/06/06 05:36:13;;;;;;;31.88;26.30;;;21.20;1.00;;;;;;5063499;28;20045;-62
2023/06/06 05:38:38;;;;;;;31.67;25.60;;;21.20;1.00;;;;;;5042943;28;20032;-62
2023/06/06 05:41:04;;;;;;;30.23;26.17;;;21.30;1.00;;;;;;5064563;28;20521;-62
2023/06/06 05:43:31;;;;;;;28.73;25.63;;;21.30;1.00;;;;;;5076198;28;20170;-64
2023/06/06 05:45:57;;;;;;;31.35;26.67;;;21.30;1.00;;;;;;5070140;28;20405;-63
2023/06/06 05:48:22;;;;;;;28.95;25.58;;;21.20;1.00;;;;;;5071240;28;20109;-63
2023/06/06 05:50:48;;;;;;;31.50;25.02;;;21.30;1.00;;;;;;5064795;28;20154;-63
2023/06/06 05:53:14;;;;;;;29.70;26.35;;;21.30;1.00;;;;;;5065371;28;20033;-63
2023/06/06 05:55:40;;;;;;;31.65;25.95;;;21.20;1.00;;;;;;5062118;28;20036;-63
2023/06/06 05:58:05;;;;;;;29.17;25.33;;;21.20;1.00;;;;;;5066322;28;20028;-64
2023/06/06 06:00:33;;;;;;;29.83;24.60;;;21.30;1.00;;;;;;5067357;28;20531;-62
2023/06/06 06:03:03;;;;;;;26.42;23.42;;;21.30;1.00;;;;;;5065725;28;20060;-61
2023/06/06 06:05:29;;;;;;;29.75;25.70;;;21.30;1.00;;;;;;5063128;28;20101;-62
2023/06/06 06:07:59;;;;;;;30.27;25.92;;;21.30;1.00;;;;;;5071171;28;20035;-62
2023/06/06 06:10:45;;;;;;;30.77;25.30;;;21.20;1.00;;;;;;5065314;28;20432;-63
2023/06/06 06:13:11;;;;;;;31.73;25.95;;;21.30;1.00;;;;;;5048334;28;20029;-62
2023/06/06 06:15:37;;;;;;;31.88;26.08;;;21.30;1.00;;;;;;5064577;28;20047;-62
2023/06/06 06:18:03;;;;;;;30.10;24.70;;;21.30;1.00;;;;;;5067747;28;20082;-62
2023/06/06 06:20:29;;;;;;;30.88;27.38;;;21.40;1.00;;;;;;5067771;28;20081;-62
2023/06/06 06:22:55;;;;;;;29.17;26.08;;;21.30;1.00;;;;;;5066688;28;20390;-63
2023/06/06 06:25:20;;;;;;;28.63;23.88;;;21.30;1.00;;;;;;5068356;28;20032;-62
2023/06/06 06:27:47;;;;;;;29.15;26.13;;;21.30;1.00;;;;;;5069049;28;20037;-63
2023/06/06 06:30:13;;;;;;;27.98;24.95;;;21.30;1.00;;;;;;5070662;28;20020;-63
2023/06/06 06:32:41;;;;;;;33.08;26.30;;;21.30;1.00;;;;;;5064453;28;20076;-63
2023/06/06 06:35:07;;;;;;;32.95;26.73;;;21.40;1.00;;;;;;5076542;28;20155;-63
2023/06/06 06:37:37;;;;;;;32.53;25.60;;;21.40;1.00;;;;;;5076014;28;20035;-63
2023/06/06 06:40:09;;;;;;;29.30;26.08;;;21.40;1.00;;;;;;5044376;28;20020;-63
2023/06/06 06:42:39;;;;;;;29.50;25.70;;;21.40;1.00;;;;;;5070441;28;20054;-63
2023/06/06 06:45:06;;;;;;;30.45;26.85;;;21.40;1.00;;;;;;5074407;28;20027;-63
2023/06/06 06:47:32;;;;;;;31.77;26.77;;;21.40;1.00;;;;;;5070171;28;20416;-63
2023/06/06 06:49:57;;;;;;;31.20;27.75;;;21.40;1.00;;;;;;5061454;28;20078;-63
2023/06/06 06:52:23;;;;;;;29.70;26.38;;;21.40;1.00;;;;;;5063326;28;20044;-63
2023/06/06 06:54:53;;;;;;;32.67;27.38;;;21.40;1.00;;;;;;5046236;28;20040;-63
2023/06/06 06:57:20;;;;;;;28.58;25.58;;;21.40;1.00;;;;;;5064722;28;20033;-63
2023/06/06 06:59:47;;;;;;;32.60;27.58;;;21.40;1.00;;;;;;5070411;28;20020;-63
2023/06/06 07:02:13;;;;;;;31.63;26.70;;;21.40;1.00;;;;;;5059714;28;20017;-64
2023/06/06 07:04:45;;;;;;;31.02;27.70;;;21.50;1.00;;;;;;5055138;28;20028;-58
2023/06/06 07:07:14;;;;;;;31.77;28.27;;;21.50;1.00;;;;;;5056717;28;20100;-60
2023/06/06 07:09:39;;;;;;;30.27;26.77;;;21.50;1.00;;;;;;5054937;28;20489;-59
2023/06/06 07:12:07;;;;;;;35.78;29.02;;;21.70;1.00;;;;;;5068193;28;20033;-59
2023/06/06 07:14:33;;;;;;;34.10;29.23;;;21.70;1.00;;;;;;5063070;28;20028;-60
2023/06/06 07:16:59;;;;;;;33.45;27.27;;;21.80;1.00;;;;;;5073544;28;20367;-57
2023/06/06 07:19:26;;;;;;;33.08;26.83;;;21.90;1.00;;;;;;5074208;28;20032;-57
2023/06/06 07:21:52;;;;;;;29.10;25.83;;;22.00;1.00;;;;;;5067848;28;20553;-60
2023/06/06 07:24:20;;;;;;;28.70;25.58;;;22.20;1.00;;;;;;5071139;28;20038;-56
2023/06/06 07:26:45;;;;;;;28.88;25.98;;;22.20;1.00;;;;;;5069495;28;20025;-60
2023/06/06 07:29:11;;;;;;;30.60;26.48;;;22.40;1.00;;;;;;5074110;28;20028;-59
2023/06/06 07:31:38;;;;;;;31.23;27.05;;;22.30;1.00;;;;;;5066078;28;20637;-49
2023/06/06 07:34:04;;;;;;;30.65;26.67;;;22.30;1.00;;;;;;5063175;28;20074;-52
2023/06/06 07:36:30;;;;;;;33.15;27.30;;;22.40;1.00;;;;;;5058760;28;20028;-54
2023/06/06 07:38:57;;;;;;;31.58;28.08;;;22.30;1.00;;;;;;5071243;28;20055;-60
2023/06/06 07:41:24;;;;;;;32.83;27.50;;;22.20;1.00;;;;;;5077951;28;20032;-59
2023/06/06 07:43:50;;;;;;;31.90;27.20;;;22.30;1.00;;;;;;5072535;28;20044;-59
2023/06/06 07:46:16;;;;;;;28.98;25.88;;;22.20;1.00;;;;;;5072288;28;20032;-55
2023/06/06 07:48:42;;;;;;;30.00;25.23;;;22.10;1.00;;;;;;5064367;28;20024;-47
2023/06/06 07:51:08;;;;;;;27.95;23.98;;;22.00;1.00;;;;;;5073367;28;20063;-52
2023/06/06 07:53:33;;;;;;;27.05;24.15;;;22.00;1.00;;;;;;5070913;28;20066;-52
2023/06/06 07:55:59;;;;;;;28.67;25.58;;;22.00;1.00;;;;;;5067583;28;20039;-60
2023/06/06 07:58:39;;;;;;;27.13;23.75;;;22.00;1.00;;;;;;5068544;28;20035;-55
2023/06/06 08:01:05;;;;;;;25.90;23.17;;;22.00;1.00;;;;;;5081343;28;20078;-56
2023/06/06 08:03:32;;;;;;;26.52;22.38;;;22.00;1.00;;;;;;5058139;28;20028;-55
2023/06/06 08:05:58;;;;;;;23.08;19.33;;;22.10;1.00;;;;;;5064783;28;20032;-53
2023/06/06 08:08:26;;;;;;;22.17;19.77;;;22.20;1.00;;;;;;5068202;28;20040;-55
2023/06/06 08:10:52;;;;;;;19.13;17.08;;;22.40;1.00;;;;;;5072262;28;20112;-59
2023/06/06 08:13:20;;;;;;;21.67;19.08;;;22.60;1.00;;;;;;5072580;28;20059;-48
2023/06/06 08:15:46;;;;;;;25.08;21.88;;;22.60;1.00;;;;;;5071043;28;20141;-52
2023/06/06 08:18:13;;;;;;;25.20;21.58;;;22.60;1.00;;;;;;5079850;28;20173;-58
2023/06/06 08:20:40;;;;;;;27.60;24.35;;;22.60;1.00;;;;;;5071558;28;20035;-55
2023/06/06 08:23:06;;;;;;;29.30;24.33;;;22.60;1.00;;;;;;5075119;28;20108;-56
2023/06/06 08:25:33;;;;;;;27.83;23.73;;;22.60;1.00;;;;;;5062990;28;20039;-56
2023/06/06 08:27:59;;;;;;;30.27;24.48;;;22.70;1.00;;;;;;5066389;28;20497;-51
2023/06/06 08:30:25;;;;;;;27.25;23.67;;;22.70;1.00;;;;;;5062955;28;20064;-59
2023/06/06 08:32:50;;;;;;;25.17;21.35;;;22.70;1.00;;;;;;5067321;28;20031;-56
2023/06/06 08:35:19;;;;;;;22.20;19.80;;;22.70;1.00;;;;;;5070674;28;20067;-54
2023/06/06 08:37:45;;;;;;;24.17;21.58;;;22.70;1.00;;;;;;5066627;28;20033;-59
2023/06/06 08:40:11;;;;;;;26.13;21.83;;;22.70;1.00;;;;;;5070709;28;20025;-58
2023/06/06 08:42:50;;;;;;;23.15;19.77;;;22.70;1.00;;;;;;5067387;28;20372;-58
2023/06/06 08:45:21;;;;;;;22.13;19.80;;;22.80;1.00;;;;;;5065364;28;20052;-58
2023/06/06 08:47:48;;;;;;;20.55;17.85;;;22.80;1.00;;;;;;5050682;28;20036;-58
2023/06/06 08:50:15;;;;;;;23.65;19.90;;;22.90;1.00;;;;;;5070385;28;20035;-59
2023/06/06 08:52:42;;;;;;;23.55;21.15;;;22.80;1.00;;;;;;5064621;28;20029;-58
2023/06/06 08:55:08;;;;;;;25.30;20.45;;;22.70;1.00;;;;;;5068661;28;20413;-58
2023/06/06 08:57:41;;;;;;;26.50;23.73;;;22.70;1.00;;;;;;5072990;28;20051;-61
2023/06/06 09:00:11;;;;;;;28.70;25.60;;;22.80;1.00;;;;;;5065286;28;20036;-62
2023/06/06 09:02:41;;;;;;;27.38;24.52;;;22.80;1.00;;;;;;5063138;28;20347;-61
2023/06/06 09:05:13;;;;;;;27.17;24.23;;;22.90;1.00;;;;;;5063895;28;20028;-61
2023/06/06 09:07:40;;;;;;;27.65;24.90;;;22.90;1.00;;;;;;5071999;28;20121;-62
2023/06/06 09:10:06;;;;;;;26.83;24.00;;;23.00;1.00;;;;;;5070600;28;20092;-57
2023/06/06 09:12:42;;;;;;;26.77;23.67;;;23.00;1.00;;;;;;5063985;28;20029;-60
2023/06/06 09:15:09;;;;;;;21.27;19.08;;;23.10;1.00;;;;;;5063568;28;20032;-58
2023/06/06 09:17:39;;;;;;;24.13;21.63;;;23.30;1.00;;;;;;5068322;28;20021;-57
2023/06/06 09:20:09;;;;;;;23.77;21.45;;;23.30;1.00;;;;;;5057980;28;20032;-54
2023/06/06 09:22:46;;;;;;;24.42;21.77;;;23.40;1.00;;;;;;5066257;28;20046;-61
2023/06/06 09:25:27;;;;;;;23.73;20.20;;;23.60;1.00;;;;;;5066022;28;20028;-56
2023/06/06 09:28:03;;;;;;;21.23;19.08;;;23.70;1.00;;;;;;5076828;28;20029;-59
2023/06/06 09:30:31;;;;;;;24.40;21.80;;;23.90;1.00;;;;;;5068649;28;20389;-61
2023/06/06 09:33:00;;;;;;;21.77;19.50;;;24.00;1.00;;;;;;5045189;28;20032;-63
2023/06/06 09:35:52;;;;;;;25.77;21.25;;;24.10;1.00;;;;;;5069019;28;20132;-55
2023/06/06 09:38:18;;;;;;;23.85;20.90;;;24.10;1.00;;;;;;5046410;28;20075;-59
2023/06/06 09:40:51;;;;;;;24.55;20.98;;;24.10;1.00;;;;;;5040732;28;20492;-52
2023/06/06 09:43:23;;;;;;;23.60;21.27;;;24.20;1.00;;;;;;5063561;28;20043;-53
2023/06/06 09:45:51;;;;;;;23.98;21.63;;;24.10;1.00;;;;;;5060823;28;20021;-59
2023/06/06 09:48:21;;;;;;;23.98;20.25;;;24.00;1.00;;;;;;5072430;28;20036;-66
2023/06/06 09:50:48;;;;;;;22.70;20.25;;;23.90;1.00;;;;;;5064426;28;20063;-63
2023/06/06 09:53:13;;;;;;;23.00;20.70;;;23.90;1.00;;;;;;5072224;28;20036;-74
2023/06/06 09:55:41;;;;;;;21.42;19.17;;;23.90;1.00;;;;;;5061813;28;20029;-65
2023/06/06 09:58:11;;;;;;;22.55;18.40;;;23.80;1.00;;;;;;5074653;28;20385;-62
2023/06/06 10:00:37;;;;;;;19.98;17.58;;;23.70;1.00;;;;;;5049031;28;20021;-57
2023/06/06 10:03:22;;;;;;;19.45;15.82;;;23.80;1.00;;;;;;5070374;28;20044;-62
2023/06/06 10:05:49;;;;;;;18.77;16.25;;;23.90;1.00;;;;;;5069371;28;20028;-66
2023/06/06 10:08:21;;;;;;;19.88;18.00;;;23.90;1.00;;;;;;5071638;28;20012;-67
2023/06/06 10:10:49;;;;;;;18.02;16.23;;;24.00;1.00;;;;;;5071078;28;20580;-75
2023/06/06 10:13:16;;;;;;;18.45;15.43;;;24.10;1.00;;;;;;5066314;28;20533;-65
2023/06/06 10:15:42;;;;;;;17.88;16.00;;;24.20;1.00;;;;;;5070816;28;20029;-54
2023/06/06 10:18:08;;;;;;;16.05;14.45;;;24.40;99.90;;;;;;5065849;28;20031;-53
2023/06/06 10:20:34;;;;;;;14.43;12.93;;;24.50;99.90;;;;;;5065092;28;20082;-55
2023/06/06 10:23:01;;;;;;;16.10;14.60;;;24.70;99.90;;;;;;5067393;28;20032;-59
2023/06/06 10:25:27;;;;;;;14.15;12.75;;;24.90;99.90;;;;;;5051288;28;20021;-61
2023/06/06 10:28:25;;;;;;;17.05;15.32;;;25.00;99.90;;;;;;5072922;28;20393;-61
2023/06/06 10:31:00;;;;;;;13.88;12.50;;;25.00;99.90;;;;;;5062000;28;20051;-61
2023/06/06 10:33:44;;;;;;;15.23;13.75;;;25.00;99.90;;;;;;5063055;28;20032;-60
2023/06/06 10:36:16;;;;;;;;;;;24.90;99.90;;;;;;5072325;28;20037;-49
2023/06/06 10:39:16;;;;;;;13.48;11.52;;;24.90;99.90;;;;;;5072923;28;19939;-54
2023/06/06 10:42:06;;;;;;;13.15;11.90;;;25.20;99.90;;;;;;5064009;28;20035;-64
2023/06/06 10:44:44;;;;;;;14.80;12.88;;;25.40;99.90;;;;;;5070734;28;21334;-54
2023/06/06 10:47:23;;;;;;;15.85;14.00;;;25.70;99.90;;;;;;5069371;28;20083;-51
2023/06/06 10:50:07;;;;;;;14.82;13.30;;;25.90;99.90;;;;;;5065732;28;20052;-56
2023/06/06 10:52:59;;;;;;;15.73;14.07;;;26.00;99.90;;;;;;5069497;28;20029;-51
2023/06/06 10:55:26;;;;;;;17.52;15.73;;;26.10;99.90;;;;;;5068277;28;20113;-52
2023/06/06 10:58:04;;;;;;;18.55;16.75;;;26.20;99.90;;;;;;5066373;28;20473;-50
2023/06/06 11:00:34;;;;;;;18.02;16.33;;;26.00;99.90;;;;;;5065018;28;20029;-53
2023/06/06 11:03:15;;;;;;;19.00;16.98;;;26.00;99.90;;;;;;5067717;28;20478;-54
2023/06/06 11:06:11;;;;;;;15.50;14.05;;;26.10;99.90;;;;;;5066365;28;20021;-52
2023/06/06 11:08:38;;;;;;;16.20;14.50;;;26.30;99.90;;;;;;5053914;28;20050;-52
2023/06/06 11:11:19;;;;;;;14.52;13.23;;;26.50;99.90;;;;;;5066669;28;20028;-51
2023/06/06 11:14:07;;;;;;;16.55;14.15;;;26.60;99.90;;;;;;5061821;28;20492;-50
2023/06/06 11:16:39;;;;;;;14.27;12.82;;;26.70;99.90;;;;;;5073657;28;20127;-54
2023/06/06 11:19:17;;;;;;;12.05;10.85;;;26.80;99.90;;;;;;5073047;28;20016;-49
2023/06/06 11:21:47;;;;;;;11.73;10.63;;;27.00;99.90;;;;;;5071790;28;20021;-50
2023/06/06 11:24:14;;;;;;;10.13;9.18;;;26.80;99.90;;;;;;5071402;28;20024;-50
2023/06/06 11:26:42;;;;;;;11.75;10.70;;;27.00;99.90;;;;;;5073689;28;20016;-52
2023/06/06 11:29:09;;;;;;;26.35;11.57;;;27.50;99.90;;;;;;5069419;28;20081;-47
2023/06/06 11:31:36;;;;;;;10.20;9.20;;;27.50;99.90;;;;;;5073448;28;20024;-49
2023/06/06 11:34:10;;;;;;;11.80;10.60;;;27.70;99.90;;;;;;5073846;28;20179;-45
2023/06/06 11:36:38;;;;;;;11.13;10.13;;;28.10;99.90;;;;;;5072058;28;20072;-47
2023/06/06 11:39:06;;;;;;;11.20;10.30;;;28.50;99.90;;;;;;5069877;28;20428;-46
2023/06/06 11:41:50;;;;;;;9.65;8.80;;;28.50;99.90;;;;;;5072439;28;20028;-47
2023/06/06 11:44:17;;;;;;;11.10;9.98;;;28.90;99.90;;;;;;5055401;28;20048;-47
2023/06/06 11:47:29;;;;;;;9.63;8.60;;;28.30;99.90;;;;;;5073343;28;20025;-48
2023/06/06 11:49:55;;;;;;;9.15;8.25;;;27.80;99.90;;;;;;5049484;28;20058;-50
2023/06/06 11:52:21;;;;;;;7.20;6.65;;;27.50;99.90;;;;;;5055171;28;20032;-45
2023/06/06 11:54:52;;;;;;;9.07;8.27;;;27.40;99.90;;;;;;5073087;28;20017;-46
2023/06/06 11:57:18;;;;;;;7.85;6.90;;;27.30;99.90;;;;;;5066215;28;20116;-51
2023/06/06 11:59:55;;;;;;;9.55;8.65;;;27.90;99.90;;;;;;5072676;28;20147;-49
2023/06/06 12:02:21;;;;;;;8.52;7.82;;;28.60;99.90;;;;;;5072998;28;20429;-49
2023/06/06 12:04:47;;;;;;;8.95;8.07;;;27.70;99.90;;;;;;5073196;28;20029;-48
2023/06/06 12:07:13;;;;;;;8.30;7.60;;;27.70;99.90;;;;;;5072501;28;20520;-46
2023/06/06 12:13:32;;;;;;;8.10;7.40;;;33.80;99.90;;;;;;5064981;28;20035;-52
2023/06/06 12:15:58;;;;;;;7.82;7.13;;;35.60;99.90;;;;;;5068516;28;20058;-51
2023/06/06 12:18:24;;;;;;;7.20;6.50;;;35.10;99.90;;;;;;5072307;28;20013;-51
2023/06/06 12:20:50;;;;;;;6.97;6.32;;;32.60;99.90;;;;;;5064437;28;20490;-48
2023/06/06 12:23:29;;;;;;;6.13;5.72;;;34.20;99.90;;;;;;5065015;28;20040;-48
2023/06/06 12:25:58;;;;;;;4.70;4.32;;;36.50;99.90;;;;;;5066885;28;20104;-46
2023/06/06 12:28:24;;;;;;;6.95;5.85;;;37.30;99.90;;;;;;5072981;28;20035;-48
2023/06/06 12:30:51;;;;;;;6.40;5.70;;;36.70;99.90;;;;;;5066001;28;20028;-52
2023/06/06 12:33:21;;;;;;;7.13;6.43;;;36.50;99.90;;;;;;5063675;28;21448;-46
2023/06/06 12:35:48;;;;;;;6.13;5.53;;;35.90;99.90;;;;;;5059266;28;20033;-51
2023/06/06 12:38:22;;;;;;;6.63;5.18;;;35.70;99.90;;;;;;5058263;28;20029;-56
2023/06/06 12:40:57;;;;;;;6.63;6.03;;;36.00;99.90;;;;;;5060790;28;20028;-44
2023/06/06 12:43:24;;;;;;;4.85;4.45;;;33.00;99.90;;;;;;5069537;28;20044;-59
2023/06/06 12:45:50;;;;;;;7.28;4.38;;;31.50;99.90;;;;;;5069420;28;20031;-57
2023/06/06 12:48:20;;;;;;;5.53;5.03;;;31.00;99.90;;;;;;5065116;28;20032;-61
2023/06/06 12:50:47;;;;;;;6.88;6.28;;;31.50;99.90;;;;;;5060671;28;20020;-60